Time;durP1;ratioP1;P1;durP2;ratioP2;P2;SDS_P1;SDS_P2;PMS_P1;PMS_P2;Temp;Humidity;BMP_temperature;BMP_pressure;BME280_temperature;BME280_humidity;BME280_pressure;Samples;Min_cycle;Max_cycle;Signal;HPM_P1;HPM_P2
2022/05/10 00:01:42;;;;;;;13.88;12.30;;;;;;;14.49;83.74;101996.56;5091465;28;20028;-65
2022/05/10 00:04:09;;;;;;;14.95;11.90;;;;;;;14.46;84.01;101997.38;5091324;28;20035;-65
2022/05/10 00:06:40;;;;;;;13.60;12.27;;;;;;;14.40;83.95;101990.22;5090850;28;20020;-65
2022/05/10 00:09:06;;;;;;;16.25;12.57;;;;;;;14.36;84.14;101985.72;5090673;28;20078;-65
2022/05/10 00:11:32;;;;;;;14.32;12.95;;;;;;;14.29;84.82;101983.72;5090980;28;20031;-65
2022/05/10 00:13:57;;;;;;;15.57;12.25;;;;;;;14.25;84.80;101984.44;5091033;28;20032;-65
2022/05/10 00:16:22;;;;;;;16.20;14.25;;;;;;;14.21;84.53;101990.41;5091333;28;20050;-65
2022/05/10 00:18:48;;;;;;;15.13;13.75;;;;;;;14.14;85.44;101984.06;5090790;28;20028;-65
2022/05/10 00:21:19;;;;;;;15.35;12.52;;;;;;;14.08;85.32;101979.56;5090661;28;20032;-65
2022/05/10 00:23:44;;;;;;;14.40;13.00;;;;;;;14.02;85.83;101979.31;5090540;28;20433;-65
2022/05/10 00:26:10;;;;;;;16.27;14.60;;;;;;;13.97;85.51;101975.66;5091048;28;20270;-65
2022/05/10 00:28:35;;;;;;;18.58;13.80;;;;;;;13.91;86.10;101971.09;5090963;28;20028;-65
2022/05/10 00:31:00;;;;;;;15.93;14.32;;;;;;;13.85;86.34;101971.75;5090802;28;20035;-64
2022/05/10 00:33:28;;;;;;;16.02;13.38;;;;;;;13.79;86.79;101968.94;5090648;28;20506;-65
2022/05/10 00:35:56;;;;;;;16.05;14.43;;;;;;;13.77;86.91;101968.00;5090305;28;20073;-64
2022/05/10 00:38:30;;;;;;;16.92;14.77;;;;;;;13.73;87.34;101966.09;5090731;28;20475;-64
2022/05/10 00:41:06;;;;;;;15.65;13.98;;;;;;;13.67;87.95;101967.66;5091355;28;20464;-64
2022/05/10 00:43:36;;;;;;;16.75;14.98;;;;;;;13.63;88.76;101967.50;5090842;28;20386;-65
2022/05/10 00:46:11;;;;;;;15.40;13.97;;;;;;;13.56;88.68;101956.84;5090805;28;20099;-65
2022/05/10 00:48:45;;;;;;;15.20;13.77;;;;;;;13.52;88.32;101968.00;5090448;28;20016;-64
2022/05/10 00:51:17;;;;;;;15.32;13.82;;;;;;;13.47;89.49;101958.19;5090509;28;20383;-64
2022/05/10 00:53:42;;;;;;;17.63;14.88;;;;;;;13.42;89.79;101961.50;5090731;28;20028;-65
2022/05/10 00:56:14;;;;;;;16.52;14.93;;;;;;;13.40;89.99;101951.88;5090082;28;20077;-65
2022/05/10 00:58:54;;;;;;;16.23;14.20;;;;;;;13.37;90.36;101952.63;5090517;28;20035;-65
2022/05/10 01:01:29;;;;;;;16.92;15.30;;;;;;;13.35;90.39;101954.28;5090422;28;20046;-64
2022/05/10 01:04:08;;;;;;;17.23;15.43;;;;;;;13.35;90.20;101945.59;5090366;28;20107;-65
2022/05/10 01:06:46;;;;;;;15.82;14.32;;;;;;;13.31;91.17;101942.84;5088980;28;20119;-64
2022/05/10 01:09:20;;;;;;;16.63;14.68;;;;;;;13.29;91.05;101943.66;5089991;28;20027;-65
2022/05/10 01:11:53;;;;;;;16.50;15.00;;;;;;;13.26;90.91;101940.94;5090060;28;20476;-65
2022/05/10 01:14:30;;;;;;;16.02;14.35;;;;;;;13.24;91.16;101943.44;5089959;28;20028;-65
2022/05/10 01:16:56;;;;;;;17.85;16.02;;;;;;;13.23;91.35;101938.19;5089039;28;20051;-64
2022/05/10 01:19:22;;;;;;;16.25;14.65;;;;;;;13.21;91.45;101931.22;5090082;28;20491;-65
2022/05/10 01:21:56;;;;;;;16.63;14.82;;;;;;;13.20;91.49;101939.84;5090101;28;20032;-64
2022/05/10 01:24:48;;;;;;;16.48;14.38;;;;;;;13.17;91.79;101926.72;5089979;28;20028;-65
2022/05/10 01:27:27;;;;;;;18.65;15.75;;;;;;;13.18;91.65;101930.22;5089420;28;20391;-65
2022/05/10 01:30:01;;;;;;;16.65;15.05;;;;;;;13.13;92.38;101923.94;5089777;28;20542;-65
2022/05/10 01:35:27;;;;;;;17.02;15.27;;;;;;;13.09;92.80;101928.16;5089579;28;20071;-64
2022/05/10 01:37:58;;;;;;;17.92;16.10;;;;;;;13.07;92.20;101911.59;5089586;28;20239;-64
2022/05/10 01:40:37;;;;;;;16.77;15.10;;;;;;;13.05;92.33;101913.22;5089011;28;20090;-65
2022/05/10 01:43:13;;;;;;;18.85;16.80;;;;;;;13.00;93.20;101909.56;5089828;28;20282;-64
2022/05/10 01:46:07;;;;;;;17.70;15.88;;;;;;;12.99;92.98;101908.66;5090055;28;20026;-64
2022/05/10 01:48:36;;;;;;;21.00;17.30;;;;;;;12.96;92.96;101909.44;5090094;28;20111;-64
2022/05/10 01:51:07;;;;;;;19.15;17.35;;;;;;;12.96;93.02;101904.25;5088747;28;20028;-65
2022/05/10 01:53:35;;;;;;;19.80;17.77;;;;;;;12.93;92.98;101898.91;5089535;28;20084;-64
2022/05/10 01:56:04;;;;;;;19.40;16.77;;;;;;;12.91;93.28;101894.47;5089528;28;20110;-65
2022/05/10 01:58:33;;;;;;;20.23;18.13;;;;;;;12.89;93.56;101902.22;5089817;28;20036;-64
2022/05/10 02:01:03;;;;;;;20.60;18.58;;;;;;;12.84;93.97;101893.38;5094064;28;20530;-64
2022/05/10 02:03:59;;;;;;;19.77;17.88;;;;;;;12.78;94.47;101888.81;5108766;28;20066;-64
2022/05/10 02:06:43;;;;;;;19.27;17.55;;;;;;;12.72;94.08;101889.44;5109313;28;20030;-64
2022/05/10 02:09:18;;;;;;;19.17;17.33;;;;;;;12.72;94.69;101893.75;5109394;28;20444;-64
2022/05/10 02:11:52;;;;;;;20.48;18.30;;;;;;;12.71;94.87;101882.47;5109696;28;20110;-64
2022/05/10 02:14:24;;;;;;;20.38;17.80;;;;;;;12.72;94.52;101883.34;5108666;28;20081;-64
2022/05/10 02:17:13;;;;;;;20.17;18.13;;;;;;;12.73;94.68;101879.94;5108838;28;20024;-64
2022/05/10 02:19:49;;;;;;;19.25;17.40;;;;;;;12.73;95.14;101867.81;5109079;28;20035;-64
2022/05/10 02:22:22;;;;;;;19.85;17.67;;;;;;;12.76;95.05;101879.16;5109165;28;20028;-64
2022/05/10 02:25:07;;;;;;;23.63;18.80;;;;;;;12.76;95.18;101874.84;5109211;27;20407;-65
2022/05/10 02:27:37;;;;;;;19.55;17.85;;;;;;;12.76;94.95;101873.94;5108851;28;20060;-64
2022/05/10 02:30:08;;;;;;;20.17;17.98;;;;;;;12.76;95.25;101876.53;5109151;28;20031;-64
2022/05/10 02:35:25;;;;;;;20.45;18.23;;;;;;;12.76;95.57;101863.53;5108573;28;20058;-64
2022/05/10 02:37:51;;;;;;;23.80;18.92;;;;;;;12.75;95.72;101853.97;5108930;28;20463;-64
2022/05/10 02:40:16;;;;;;;21.08;18.98;;;;;;;12.72;95.54;101858.22;5108891;28;20031;-64
2022/05/10 02:42:47;;;;;;;21.05;19.05;;;;;;;12.72;96.05;101855.63;5108904;28;20051;-64
2022/05/10 02:45:17;;;;;;;20.58;18.50;;;;;;;12.70;95.79;101854.69;5109185;28;20027;-65
2022/05/10 02:47:45;;;;;;;21.35;19.15;;;;;;;12.68;95.79;101860.66;5108118;28;20194;-64
2022/05/10 02:50:22;;;;;;;20.35;18.25;;;;;;;12.66;96.81;101847.59;5108600;28;20028;-64
2022/05/10 02:52:48;;;;;;;21.13;19.02;;;;;;;12.67;96.56;101858.88;5108421;28;20352;-64
2022/05/10 02:55:20;;;;;;;22.95;19.65;;;;;;;12.69;96.93;101846.81;5108649;28;20024;-64
2022/05/10 02:57:48;;;;;;;22.15;20.05;;;;;;;12.69;96.59;101842.50;5108272;28;20028;-64
2022/05/10 03:00:15;;;;;;;20.98;18.88;;;;;;;12.70;96.83;101840.81;5107970;28;20090;-64
2022/05/10 03:02:45;;;;;;;22.23;20.13;;;;;;;12.70;96.67;101841.69;5108229;28;20364;-64
2022/05/10 03:05:12;;;;;;;21.27;19.20;;;;;;;12.71;96.24;101837.38;5108409;28;20027;-65
2022/05/10 03:07:38;;;;;;;21.08;18.65;;;;;;;12.73;96.35;101838.31;5109039;28;20061;-64
2022/05/10 03:10:05;;;;;;;21.40;19.15;;;;;;;12.72;96.73;101834.81;5108737;28;20023;-64
2022/05/10 03:12:30;;;;;;;20.80;18.80;;;;;;;12.76;96.34;101825.44;5107797;28;20391;-64
2022/05/10 03:14:56;;;;;;;20.75;18.63;;;;;;;12.80;96.38;101826.44;5108106;28;20085;-64
2022/05/10 03:17:21;;;;;;;20.30;18.30;;;;;;;12.79;96.29;101827.28;5108126;28;20034;-64
2022/05/10 03:19:46;;;;;;;19.27;17.48;;;;;;;12.80;97.24;101829.03;5108078;28;20378;-64
2022/05/10 03:22:12;;;;;;;20.48;18.50;;;;;;;12.79;96.43;101820.34;5108430;28;20063;-64
2022/05/10 03:24:37;;;;;;;21.17;19.20;;;;;;;12.79;96.61;101820.34;5108237;28;20019;-64
2022/05/10 03:27:05;;;;;;;20.08;18.08;;;;;;;12.81;97.71;101815.19;5106248;28;20020;-64
2022/05/10 03:29:31;;;;;;;19.95;18.23;;;;;;;12.80;97.85;101811.72;5107246;28;20031;-64
2022/05/10 03:31:57;;;;;;;20.52;18.58;;;;;;;12.81;97.04;101812.59;5107909;28;20047;-64
2022/05/10 03:37:06;;;;;;;20.10;18.10;;;;;;;12.84;97.45;101812.72;5108216;28;20502;-64
2022/05/10 03:39:31;;;;;;;19.73;17.67;;;;;;;12.87;96.67;101809.34;5108033;28;20023;-64
2022/05/10 03:41:56;;;;;;;20.08;18.17;;;;;;;12.86;96.89;101803.28;5107672;28;20106;-64
2022/05/10 03:44:22;;;;;;;19.73;17.83;;;;;;;12.87;97.14;101805.03;5107585;28;20024;-64
2022/05/10 03:46:47;;;;;;;19.48;17.60;;;;;;;12.88;97.15;101799.00;5108144;28;20019;-65
2022/05/10 03:49:13;;;;;;;19.58;17.85;;;;;;;12.84;97.43;101800.59;5107629;28;20051;-64
2022/05/10 03:51:39;;;;;;;18.30;16.52;;;;;;;12.85;97.58;101806.69;5107138;28;20027;-64
2022/05/10 03:54:04;;;;;;;20.80;18.80;;;;;;;12.85;97.59;101801.47;5105861;28;20031;-64
2022/05/10 03:56:30;;;;;;;19.02;17.17;;;;;;;12.85;98.16;101807.59;5106504;28;20024;-64
2022/05/10 03:58:55;;;;;;;22.88;18.42;;;;;;;12.85;98.34;101798.88;5106645;28;20053;-64
2022/05/10 04:01:21;;;;;;;20.25;18.05;;;;;;;12.85;98.30;101796.28;5105629;28;20080;-64
2022/05/10 04:03:47;;;;;;;19.80;17.75;;;;;;;12.85;97.68;101797.19;5106990;28;20027;-64
2022/05/10 04:06:12;;;;;;;19.25;17.45;;;;;;;12.87;98.19;101796.34;5107751;28;20099;-64
2022/05/10 04:08:38;;;;;;;19.42;17.50;;;;;;;12.88;97.98;101790.31;5106964;28;20103;-64
2022/05/10 04:11:09;;;;;;;18.83;17.13;;;;;;;12.87;98.12;101783.34;5107899;28;20055;-64
2022/05/10 04:13:35;;;;;;;18.70;16.92;;;;;;;12.88;97.72;101792.94;5107410;28;20470;-64
2022/05/10 04:16:00;;;;;;;19.40;17.27;;;;;;;12.90;97.77;101781.72;5101918;28;20380;-64
2022/05/10 04:18:26;;;;;;;20.27;18.38;;;;;;;12.92;97.94;101785.28;5086884;28;20125;-64
2022/05/10 04:20:52;;;;;;;19.98;18.10;;;;;;;12.93;97.27;101794.84;5087678;28;20306;-64
2022/05/10 04:23:18;;;;;;;22.70;18.23;;;;;;;12.96;97.00;101792.38;5086767;28;20059;-64
2022/05/10 04:25:43;;;;;;;22.85;18.45;;;;;;;12.99;96.51;101793.34;5086686;28;20027;-64
2022/05/10 04:28:09;;;;;;;19.95;17.95;;;;;;;13.01;96.09;101789.94;5086160;28;20016;-64
2022/05/10 04:30:34;;;;;;;22.30;18.33;;;;;;;13.04;96.25;101783.97;5085553;28;20464;-64
2022/05/10 04:32:59;;;;;;;20.65;18.50;;;;;;;13.05;95.40;101777.94;5086551;28;20165;-64
2022/05/10 04:35:24;;;;;;;20.20;18.08;;;;;;;13.09;94.55;101783.31;5086416;28;20044;-64
2022/05/10 04:37:50;;;;;;;22.67;17.63;;;;;;;13.12;93.87;101779.94;5087085;28;20020;-64
2022/05/10 04:42:59;;;;;;;23.85;18.98;;;;;;;13.23;93.38;101782.03;5090668;28;20031;-64
2022/05/10 04:45:25;;;;;;;19.70;17.65;;;;;;;13.27;93.13;101783.94;5089982;28;20250;-64
2022/05/10 04:47:50;;;;;;;22.48;19.67;;;;;;;13.30;92.77;101776.22;5089562;28;20020;-64
2022/05/10 04:50:15;;;;;;;23.38;19.85;;;;;;;13.34;92.66;101780.72;5088731;28;20024;-64
2022/05/10 04:52:41;;;;;;;24.48;19.45;;;;;;;13.39;92.28;101767.84;5090325;28;20032;-64
2022/05/10 04:55:09;;;;;;;20.52;18.23;;;;;;;13.43;91.62;101772.34;5090499;28;20027;-64
2022/05/10 04:57:38;;;;;;;21.73;19.48;;;;;;;13.48;91.49;101772.47;5089936;28;20042;-64
2022/05/10 05:00:06;;;;;;;23.10;17.73;;;;;;;13.53;90.82;101777.06;5090242;28;20035;-64
2022/05/10 05:02:32;;;;;;;25.55;20.08;;;;;;;13.58;90.17;101764.22;5090289;28;20020;-64
2022/05/10 05:04:57;;;;;;;22.88;18.90;;;;;;;13.64;89.72;101769.63;5090118;28;20068;-64
2022/05/10 05:07:22;;;;;;;23.35;20.30;;;;;;;13.72;89.66;101766.38;5090452;28;20589;-64
2022/05/10 05:09:48;;;;;;;22.95;20.45;;;;;;;13.76;89.09;101773.50;5089959;28;20043;-64
2022/05/10 05:12:13;;;;;;;23.23;19.60;;;;;;;13.82;89.00;101773.69;5090013;28;20433;-64
2022/05/10 05:14:39;;;;;;;21.02;18.75;;;;;;;13.86;88.94;101769.47;5090210;28;20020;-64
2022/05/10 05:17:04;;;;;;;24.52;19.70;;;;;;;13.90;88.80;101779.16;5090066;28;20028;-64
2022/05/10 05:19:29;;;;;;;21.60;19.23;;;;;;;13.95;88.74;101774.09;5088151;28;20028;-64
2022/05/10 05:21:55;;;;;;;21.83;19.00;;;;;;;13.99;88.59;101783.78;5096475;28;20391;-64
2022/05/10 05:24:20;;;;;;;22.48;19.00;;;;;;;14.04;88.85;101780.50;5109745;28;20080;-64
2022/05/10 05:26:47;;;;;;;21.60;19.60;;;;;;;14.09;88.55;101778.03;5109054;28;20447;-64
2022/05/10 05:29:12;;;;;;;20.75;18.70;;;;;;;14.12;88.41;101778.13;5110247;28;20070;-64
2022/05/10 05:31:38;;;;;;;19.38;17.48;;;;;;;14.16;88.37;101780.00;5110039;28;20027;-64
2022/05/10 05:34:04;;;;;;;20.65;18.55;;;;;;;14.22;88.30;101786.25;5098282;28;20490;-64
2022/05/10 05:36:29;;;;;;;19.25;17.23;;;;;;;14.26;88.15;101775.97;5089741;28;20107;-64
2022/05/10 05:38:54;;;;;;;22.05;18.27;;;;;;;14.32;87.95;101779.63;5089742;28;20027;-64
2022/05/10 05:41:19;;;;;;;18.77;16.85;;;;;;;14.37;87.90;101770.22;5089777;28;20042;-64
2022/05/10 05:43:45;;;;;;;18.67;16.88;;;;;;;14.41;87.70;101775.56;5089386;28;20028;-64
2022/05/10 05:46:10;;;;;;;19.20;16.33;;;;;;;14.48;87.22;101775.75;5089013;28;20065;-64
2022/05/10 05:48:37;;;;;;;18.10;15.65;;;;;;;14.54;87.05;101775.94;5089655;28;20441;-64
2022/05/10 05:51:03;;;;;;;18.38;14.88;;;;;;;14.60;86.75;101770.91;5087001;28;20058;-64
2022/05/10 05:53:28;;;;;;;16.52;14.68;;;;;;;14.71;86.80;101772.97;5087469;28;20067;-64
2022/05/10 05:56:00;;;;;;;15.48;13.90;;;;;;;14.79;86.31;101765.38;5087719;28;20028;-64
2022/05/10 05:58:26;;;;;;;15.63;14.13;;;;;;;14.91;86.01;101757.03;5087556;28;20020;-64
2022/05/10 06:00:51;;;;;;;15.95;14.25;;;;;;;15.05;86.04;101770.47;5088207;28;20024;-64
2022/05/10 06:03:16;;;;;;;14.85;13.32;;;;;;;15.17;85.22;101756.88;5087972;28;20020;-65
2022/05/10 06:05:41;;;;;;;14.40;12.68;;;;;;;15.30;84.40;101752.88;5088983;28;20501;-65
2022/05/10 06:08:09;;;;;;;13.60;12.35;;;;;;;15.41;84.03;101750.53;5088831;28;20123;-65
2022/05/10 06:10:34;;;;;;;14.15;12.70;;;;;;;15.48;83.77;101748.16;5088595;28;20047;-65
2022/05/10 06:13:01;;;;;;;14.15;12.45;;;;;;;15.58;83.09;101754.47;5088500;28;20059;-65
2022/05/10 06:15:27;;;;;;;12.90;11.55;;;;;;;15.67;82.96;101753.81;5088660;28;20024;-65
2022/05/10 06:17:52;;;;;;;12.27;11.10;;;;;;;15.76;82.30;101749.69;5088534;28;20035;-65
2022/05/10 06:20:20;;;;;;;12.48;11.35;;;;;;;15.87;81.71;101752.53;5088982;28;20405;-65
2022/05/10 06:22:46;;;;;;;11.95;9.80;;;;;;;15.98;80.70;101753.69;5088657;28;20035;-65
2022/05/10 06:25:17;;;;;;;10.38;9.18;;;;;;;16.08;80.89;101750.50;5088070;28;20488;-65
2022/05/10 06:27:42;;;;;;;11.02;8.85;;;;;;;16.20;79.95;101749.91;5088837;28;20035;-65
2022/05/10 06:30:08;;;;;;;10.50;9.30;;;;;;;16.35;79.83;101755.44;5088894;28;20028;-65
2022/05/10 06:32:34;;;;;;;9.88;8.68;;;;;;;16.45;79.91;101749.56;5088614;28;20178;-65
2022/05/10 06:35:00;;;;;;;11.32;8.30;;;;;;;16.55;79.34;101746.31;5088318;28;20044;-65
2022/05/10 06:40:12;;;;;;;9.25;8.32;;;;;;;16.75;78.47;101737.97;5088287;28;20115;-65
2022/05/10 06:42:38;;;;;;;8.55;7.75;;;;;;;16.87;78.05;101746.94;5088375;28;20067;-65
2022/05/10 06:45:08;;;;;;;11.02;8.68;;;;;;;16.96;76.86;101736.66;5088395;28;20086;-64
2022/05/10 06:47:35;;;;;;;8.52;7.72;;;;;;;17.04;76.32;101740.31;5087826;28;20120;-65
2022/05/10 06:50:00;;;;;;;7.90;6.93;;;;;;;17.13;75.36;101738.75;5088498;28;20028;-65
2022/05/10 06:52:25;;;;;;;9.57;7.25;;;;;;;17.21;74.12;101731.94;5088047;28;20365;-65
2022/05/10 06:54:51;;;;;;;10.90;8.00;;;;;;;17.28;74.37;101732.91;5088233;28;20114;-64
2022/05/10 06:57:16;;;;;;;9.20;7.30;;;;;;;17.35;74.06;101733.91;5087524;28;20032;-65
2022/05/10 06:59:43;;;;;;;7.47;6.75;;;;;;;17.43;74.39;101734.91;5087917;28;20016;-65
2022/05/10 07:02:08;;;;;;;8.00;7.30;;;;;;;17.49;73.80;101735.03;5087965;28;20395;-65
2022/05/10 07:04:33;;;;;;;12.85;8.23;;;;;;;17.56;73.13;101733.41;5087346;28;20028;-65
2022/05/10 07:06:59;;;;;;;10.50;8.05;;;;;;;17.61;72.96;101730.88;5088021;28;20498;-65
2022/05/10 07:09:24;;;;;;;9.75;7.60;;;;;;;17.68;72.78;101722.25;5087502;28;20407;-65
2022/05/10 07:11:49;;;;;;;10.35;7.63;;;;;;;17.74;72.72;101717.09;5087872;28;20047;-65
2022/05/10 07:14:14;;;;;;;12.07;7.53;;;;;;;17.84;72.26;101717.25;5087918;28;20053;-65
2022/05/10 07:16:40;;;;;;;13.38;8.25;;;;;;;17.95;71.55;101718.28;5088001;28;20016;-65
2022/05/10 07:19:05;;;;;;;9.40;8.38;;;;;;;18.10;71.95;101724.63;5087982;28;20059;-65
2022/05/10 07:21:30;;;;;;;9.02;7.72;;;;;;;18.24;71.45;101714.38;5087382;28;20452;-65
2022/05/10 07:23:56;;;;;;;8.82;7.25;;;;;;;18.41;71.47;101711.09;5087394;28;20046;-65
2022/05/10 07:26:21;;;;;;;10.32;8.18;;;;;;;18.59;69.72;101708.72;5087897;28;20027;-65
2022/05/10 07:28:46;;;;;;;10.63;8.57;;;;;;;18.74;69.63;101711.50;5087542;28;20077;-65
2022/05/10 07:31:12;;;;;;;16.55;8.05;;;;;;;18.86;69.12;101706.38;5088114;28;20035;-65
2022/05/10 07:33:37;;;;;;;8.15;7.28;;;;;;;19.01;68.80;101704.78;5086941;28;20499;-65
2022/05/10 07:38:47;;;;;;;8.32;7.50;;;;;;;19.34;66.19;101711.25;5087300;28;20085;-65
2022/05/10 07:41:12;;;;;;;7.10;6.38;;;;;;;19.43;66.95;101705.19;5087453;28;20032;-64
2022/05/10 07:43:38;;;;;;;9.18;6.22;;;;;;;19.44;66.07;101704.34;5087508;28;20031;-65
2022/05/10 07:46:05;;;;;;;7.95;7.15;;;;;;;19.43;65.26;101698.22;5087530;28;20346;-65
2022/05/10 07:48:30;;;;;;;10.27;6.97;;;;;;;19.42;65.03;101706.97;5087681;28;20031;-65
2022/05/10 07:50:57;;;;;;;7.70;5.90;;;;;;;19.49;64.93;101697.38;5087751;28;20020;-65
2022/05/10 07:53:22;;;;;;;7.28;5.90;;;;;;;19.52;64.00;101696.50;5087666;28;20024;-65
2022/05/10 07:55:47;;;;;;;7.80;6.50;;;;;;;19.69;64.96;101696.66;5086806;28;20518;-65
2022/05/10 07:58:13;;;;;;;8.82;5.57;;;;;;;19.89;64.60;101696.81;5087095;28;20399;-65
2022/05/10 08:00:40;;;;;;;9.98;5.70;;;;;;;20.12;64.74;101689.94;5087812;28;20052;-65
2022/05/10 08:03:26;;;;;;;8.55;5.72;;;;;;;20.21;62.97;101694.38;5086965;28;20032;-65
2022/05/10 08:05:55;;;;;;;6.07;5.47;;;;;;;20.26;62.65;101690.00;5087128;28;20106;-65
2022/05/10 08:08:21;;;;;;;8.35;5.28;;;;;;;20.26;62.19;101688.28;5087716;28;20103;-65
2022/05/10 08:10:48;;;;;;;9.23;6.00;;;;;;;20.26;61.16;101692.66;5086624;28;20036;-65
2022/05/10 08:13:17;;;;;;;8.95;5.22;;;;;;;20.29;61.83;101695.31;5087549;28;20032;-65
2022/05/10 08:15:42;;;;;;;5.75;4.85;;;;;;;20.40;61.79;101692.69;5090291;28;20046;-65
2022/05/10 08:18:09;;;;;;;7.38;5.10;;;;;;;20.51;60.24;101690.13;5091778;28;20028;-65
2022/05/10 08:20:35;;;;;;;5.57;4.55;;;;;;;20.61;60.18;101689.31;5090714;28;20024;-65
2022/05/10 08:23:00;;;;;;;4.97;4.25;;;;;;;20.64;60.13;101688.41;5091001;28;20039;-65
2022/05/10 08:25:26;;;;;;;4.65;4.10;;;;;;;20.68;59.79;101691.94;5090932;28;20024;-65
2022/05/10 08:27:51;;;;;;;5.50;4.60;;;;;;;20.70;60.01;101680.56;5091186;28;20099;-65
2022/05/10 08:30:17;;;;;;;9.93;5.05;;;;;;;20.68;59.48;101686.69;5090743;28;20278;-65
2022/05/10 08:32:43;;;;;;;7.97;5.00;;;;;;;20.68;58.58;101682.31;5091290;28;20046;-65
2022/05/10 08:35:09;;;;;;;5.30;4.10;;;;;;;20.59;59.06;101688.41;5090856;28;20051;-65
2022/05/10 08:37:37;;;;;;;8.45;4.25;;;;;;;20.59;58.87;101687.53;5090855;28;20065;-65
2022/05/10 08:40:05;;;;;;;11.82;4.78;;;;;;;20.54;57.62;101669.09;5090921;28;20031;-65
2022/05/10 08:42:33;;;;;;;8.98;4.93;;;;;;;20.48;58.72;101674.31;5090729;28;20040;-65
2022/05/10 08:45:02;;;;;;;7.50;4.13;;;;;;;20.48;59.37;101675.22;5091034;28;20051;-65
2022/05/10 08:47:28;;;;;;;5.35;4.65;;;;;;;20.47;59.59;101667.31;5090720;28;20028;-65
2022/05/10 08:49:58;;;;;;;7.00;4.95;;;;;;;20.46;58.20;101673.44;5090423;28;20069;-65
2022/05/10 08:52:32;;;;;;;6.78;4.43;;;;;;;20.46;58.92;101665.53;5089977;28;20024;-65
2022/05/10 08:54:58;;;;;;;7.00;4.03;;;;;;;20.50;59.27;101672.59;5089217;28;20081;-65
2022/05/10 08:57:29;;;;;;;7.07;4.05;;;;;;;20.46;57.76;101658.53;5090389;28;20093;-65
2022/05/10 09:00:04;;;;;;;6.30;4.00;;;;;;;20.50;57.95;101669.94;5090490;28;20028;-65
2022/05/10 09:02:39;;;;;;;4.15;3.63;;;;;;;20.58;59.22;101664.72;5090115;28;20039;-65
2022/05/10 09:05:28;;;;;;;9.73;4.30;;;;;;;20.64;57.63;101655.09;5090243;28;20106;-65
2022/05/10 09:08:11;;;;;;;5.95;4.03;;;;;;;20.76;58.27;101656.84;5090150;28;20056;-65
2022/05/10 09:10:39;;;;;;;7.20;4.35;;;;;;;20.98;57.57;101653.41;5090101;28;20023;-65
2022/05/10 09:13:08;;;;;;;9.90;4.20;;;;;;;21.24;56.15;101655.19;5090286;28;20039;-65
2022/05/10 09:15:38;;;;;;;5.10;3.90;;;;;;;21.45;55.49;101656.94;5089403;28;20407;-65
2022/05/10 09:18:23;;;;;;;5.72;4.07;;;;;;;21.63;54.53;101652.53;5089956;28;20160;-65
2022/05/10 09:21:10;;;;;;;5.30;3.70;;;;;;;21.76;54.25;101644.59;5090018;28;20063;-65
2022/05/10 09:24:00;;;;;;;6.93;3.83;;;;;;;21.95;54.53;101648.09;5090130;28;20020;-65
2022/05/10 09:26:43;;;;;;;7.70;4.07;;;;;;;22.22;54.61;101646.22;5088435;28;20030;-65
2022/05/10 09:29:27;;;;;;;4.75;4.20;;;;;;;22.21;52.45;101639.22;5090042;28;20326;-65
2022/05/10 09:34:48;;;;;;;11.50;4.15;;;;;;;22.26;53.01;101642.72;5089461;28;20149;-65
2022/05/10 09:37:33;;;;;;;8.50;4.15;;;;;;;22.14;53.20;101642.75;5089810;28;20031;-65
2022/05/10 09:39:58;;;;;;;6.20;4.10;;;;;;;22.23;53.29;101640.09;5088962;28;20106;-65
2022/05/10 09:42:25;;;;;;;6.72;4.43;;;;;;;22.19;52.67;101630.41;5089749;28;20550;-65
2022/05/10 09:44:58;;;;;;;4.72;3.60;;;;;;;22.34;53.55;101633.88;5089870;28;20051;-65
2022/05/10 09:47:24;;;;;;;14.40;4.93;;;;;;;22.28;51.96;101633.03;5090079;28;20028;-65
2022/05/10 09:49:49;;;;;;;5.97;4.25;;;;;;;22.40;52.63;101636.47;5089441;28;20038;-65
2022/05/10 09:52:25;;;;;;;6.25;4.57;;;;;;;22.24;52.14;101628.63;5089720;28;20032;-65
2022/05/10 09:54:55;;;;;;;7.57;4.60;;;;;;;22.18;52.32;101634.81;5089057;28;20602;-65
2022/05/10 09:57:32;;;;;;;5.43;4.13;;;;;;;22.28;52.56;101633.03;5089439;28;20472;-65
2022/05/10 09:59:57;;;;;;;7.38;4.63;;;;;;;22.43;52.68;101620.63;5089369;28;20400;-65
2022/05/10 10:02:27;;;;;;;4.75;4.22;;;;;;;22.61;52.41;101621.41;5089196;28;20039;-65
2022/05/10 10:04:52;;;;;;;9.17;4.30;;;;;;;22.74;51.57;101612.53;5089507;28;20082;-65
2022/05/10 10:07:22;;;;;;;8.70;4.90;;;;;;;22.86;52.00;101616.88;5088699;28;20514;-66
2022/05/10 10:09:51;;;;;;;7.10;3.80;;;;;;;23.07;51.12;101614.06;5089265;28;20540;-66
2022/05/10 10:12:37;;;;;;;6.47;4.25;;;;;;;23.21;51.02;101601.59;5089188;28;20035;-66
2022/05/10 10:15:21;;;;;;;12.30;4.47;;;;;;;23.33;51.21;101602.38;5089218;28;20463;-66
2022/05/10 10:17:58;;;;;;;9.90;4.00;;;;;;;23.60;51.33;101597.75;5088964;28;20375;-66
2022/05/10 10:20:39;;;;;;;7.97;4.47;;;;;;;23.71;49.19;101590.53;5088796;28;20078;-66
2022/05/10 10:23:30;;;;;;;5.20;3.63;;;;;;;23.97;49.75;101592.03;5088935;28;20023;-65
2022/05/10 10:26:03;;;;;;;6.60;3.90;;;;;;;24.28;48.73;101593.41;5088832;28;20016;-66
2022/05/10 10:28:38;;;;;;;8.65;4.30;;;;;;;24.30;47.08;101591.59;5088360;28;20387;-66
2022/05/10 10:31:16;;;;;;;6.45;4.03;;;;;;;24.52;47.06;101593.09;5088915;28;20024;-66
2022/05/10 10:33:47;;;;;;;6.15;3.50;;;;;;;24.69;46.88;101591.06;5088482;28;20031;-66
2022/05/10 10:36:21;;;;;;;8.30;3.63;;;;;;;24.79;46.65;101601.50;5088836;28;20032;-66
2022/05/10 10:38:56;;;;;;;8.90;4.10;;;;;;;24.70;44.25;101582.19;5088338;28;20111;-66
2022/05/10 10:41:52;;;;;;;9.02;4.00;;;;;;;24.76;43.80;101586.53;5087702;28;20568;-66
2022/05/10 10:44:27;;;;;;;6.97;3.70;;;;;;;24.89;43.72;101586.31;5088281;28;20125;-66
2022/05/10 10:47:12;;;;;;;10.07;4.18;;;;;;;24.95;43.70;101586.28;5088361;28;20074;-66
2022/05/10 10:49:53;;;;;;;6.53;4.00;;;;;;;25.13;42.86;101570.94;5087989;28;20039;-66
2022/05/10 10:52:18;;;;;;;6.68;4.40;;;;;;;25.34;43.61;101585.59;5088785;28;20039;-66
2022/05/10 10:54:45;;;;;;;8.93;4.00;;;;;;;25.10;42.35;101577.16;5087918;28;20201;-66
2022/05/10 10:57:35;;;;;;;7.20;4.15;;;;;;;25.07;42.73;101574.56;5088089;28;20020;-66
2022/05/10 11:00:03;;;;;;;6.10;4.05;;;;;;;25.14;43.43;101565.59;5088118;28;20024;-66
2022/05/10 11:02:48;;;;;;;9.77;4.35;;;;;;;25.17;44.04;101570.84;5088069;28;20024;-66
2022/05/10 11:05:20;;;;;;;10.43;3.97;;;;;;;24.93;42.64;101569.50;5087365;28;20046;-66
2022/05/10 11:08:23;;;;;;;9.23;4.60;;;;;;;24.72;43.43;101568.06;5088068;28;20020;-66
2022/05/10 11:10:58;;;;;;;5.53;3.80;;;;;;;24.66;44.10;101559.28;5088061;28;20023;-66
2022/05/10 11:13:55;;;;;;;9.38;4.20;;;;;;;24.70;42.63;101557.47;5087889;28;20020;-66
2022/05/10 11:16:27;;;;;;;7.05;3.53;;;;;;;24.97;43.68;101554.44;5087472;28;20510;-66
2022/05/10 11:19:14;;;;;;;5.35;3.45;;;;;;;24.95;43.35;101549.16;5088128;28;20027;-66
2022/05/10 11:21:49;;;;;;;5.88;4.00;;;;;;;24.91;43.85;101558.91;5087991;28;20114;-66
2022/05/10 11:24:30;;;;;;;7.97;4.43;;;;;;;24.68;43.40;101546.91;5086510;28;20027;-66
2022/05/10 11:27:34;;;;;;;6.75;3.95;;;;;;;24.50;43.37;101545.41;5087787;28;20024;-66
2022/05/10 11:30:15;;;;;;;5.50;3.85;;;;;;;24.50;43.72;101547.22;5080749;28;20384;-66
2022/05/10 11:33:17;;;;;;;9.60;3.92;;;;;;;24.54;44.29;101549.78;5087445;28;20024;-66
2022/05/10 11:35:56;;;;;;;6.70;3.85;;;;;;;24.72;44.15;101545.06;5087191;28;20052;-66
2022/05/10 11:38:43;;;;;;;5.65;4.22;;;;;;;24.89;43.29;101538.63;5087325;28;20483;-66
2022/05/10 11:41:45;;;;;;;6.25;4.15;;;;;;;25.21;44.04;101533.66;5087411;28;20110;-66
2022/05/10 11:44:32;;;;;;;6.88;4.05;;;;;;;25.37;43.87;101532.47;5087392;28;20476;-66
2022/05/10 11:47:18;;;;;;;6.35;4.28;;;;;;;25.26;43.22;101515.88;5087561;28;20035;-66
2022/05/10 11:50:15;;;;;;;8.40;4.13;;;;;;;25.18;42.74;101519.56;5086987;28;20027;-66
2022/05/10 11:53:06;;;;;;;8.48;4.50;;;;;;;25.17;43.94;101511.63;5087258;28;20020;-66